Time;durP1;ratioP1;P1;durP2;ratioP2;P2;SDS_P1;SDS_P2;PMS_P1;PMS_P2;Temp;Humidity;BMP_temperature;BMP_pressure;BME280_temperature;BME280_humidity;BME280_pressure;Samples;Min_cycle;Max_cycle;Signal;HPM_P1;HPM_P2
2023/10/01 00:01:20;;;;;;;9.75;4.82;;;;;;;;;;6298351;22;20086;-80
2023/10/01 00:03:46;;;;;;;6.40;4.43;;;;;;;;;;6323596;22;20019;-80
2023/10/01 00:06:12;;;;;;;9.60;5.05;;;;;;;;;;6324700;22;20043;-80
2023/10/01 00:08:39;;;;;;;10.88;4.85;;;;;;;;;;6297876;22;20022;-80
2023/10/01 00:11:05;;;;;;;9.93;4.38;;;;;;;;;;6322232;22;20011;-80
2023/10/01 00:13:31;;;;;;;9.07;5.15;;;;;;;;;;6295513;22;20015;-80
2023/10/01 00:15:57;;;;;;;7.43;4.28;;;;;;;;;;6315280;22;20011;-80
2023/10/01 00:18:24;;;;;;;10.38;5.00;;;;;;;;;;6311506;22;20137;-80
2023/10/01 00:20:50;;;;;;;8.20;5.70;;;;;;;;;;6312069;22;20018;-80
2023/10/01 00:23:16;;;;;;;11.57;4.80;;;;;;;;;;6311849;22;20022;-80
2023/10/01 00:25:43;;;;;;;7.50;4.57;;;;;;;;;;6312615;22;20015;-80
2023/10/01 00:28:09;;;;;;;9.88;4.72;;;;;;;;;;6311775;22;20021;-80
2023/10/01 00:30:36;;;;;;;10.27;4.68;;;;;;;;;;6283929;22;20018;-80
2023/10/01 00:33:10;;;;;;;7.43;4.53;;;;;;;;;;6283510;22;20018;-80
2023/10/01 00:35:40;;;;;;;8.18;5.53;;;;;;;;;;6310696;22;20369;-80
2023/10/01 00:38:07;;;;;;;6.55;4.55;;;;;;;;;;6310373;22;20003;-80
2023/10/01 00:40:33;;;;;;;7.30;4.75;;;;;;;;;;6311586;22;20019;-80
2023/10/01 00:43:00;;;;;;;9.73;4.95;;;;;;;;;;6311139;22;20448;-80
2023/10/01 00:45:26;;;;;;;9.30;5.38;;;;;;;;;;6310654;22;20321;-80
2023/10/01 00:47:52;;;;;;;6.70;5.00;;;;;;;;;;6310351;22;20508;-80
2023/10/01 00:50:23;;;;;;;7.72;4.97;;;;;;;;;;6310205;22;20022;-80
2023/10/01 00:52:51;;;;;;;8.38;4.53;;;;;;;;;;6283327;22;20015;-80
2023/10/01 00:55:18;;;;;;;9.95;4.82;;;;;;;;;;6283322;22;20019;-80
2023/10/01 00:57:44;;;;;;;10.48;6.03;;;;;;;;;;6310052;22;20011;-80
2023/10/01 01:00:13;;;;;;;8.30;4.50;;;;;;;;;;6282601;22;20027;-80
2023/10/01 01:02:47;;;;;;;9.88;4.68;;;;;;;;;;6281599;22;20475;-80
2023/10/01 01:05:20;;;;;;;8.98;4.93;;;;;;;;;;6282072;22;20343;-80
2023/10/01 01:07:47;;;;;;;8.63;4.47;;;;;;;;;;6283313;22;20090;-80
2023/10/01 01:10:16;;;;;;;9.90;5.75;;;;;;;;;;6282703;22;20755;-80
2023/10/01 01:12:47;;;;;;;8.90;6.22;;;;;;;;;;6258662;22;20010;-80
2023/10/01 01:15:14;;;;;;;8.88;5.22;;;;;;;;;;6282264;22;20024;-80
2023/10/01 01:17:41;;;;;;;11.02;6.20;;;;;;;;;;6283211;22;20015;-80
2023/10/01 01:20:09;;;;;;;8.27;5.35;;;;;;;;;;6282852;22;20041;-80
2023/10/01 01:22:37;;;;;;;6.70;5.13;;;;;;;;;;6310282;22;20482;-80
2023/10/01 01:25:19;;;;;;;9.38;5.00;;;;;;;;;;6310115;22;20015;-80
2023/10/01 01:27:46;;;;;;;9.02;4.88;;;;;;;;;;6310448;22;20456;-80
2023/10/01 01:30:18;;;;;;;9.43;5.35;;;;;;;;;;6283232;22;20019;-80
2023/10/01 01:32:45;;;;;;;8.15;4.80;;;;;;;;;;6311048;22;20016;-80
2023/10/01 01:35:11;;;;;;;7.47;5.13;;;;;;;;;;6283103;22;20015;-80
2023/10/01 01:37:46;;;;;;;9.82;5.45;;;;;;;;;;6283689;22;20015;-80
2023/10/01 01:40:23;;;;;;;7.10;5.03;;;;;;;;;;6281546;22;20019;-80
2023/10/01 01:42:49;;;;;;;7.40;4.75;;;;;;;;;;6283030;22;20019;-80
2023/10/01 01:45:18;;;;;;;8.20;5.53;;;;;;;;;;6309717;22;20011;-80
2023/10/01 01:47:44;;;;;;;8.07;5.13;;;;;;;;;;6282124;22;20015;-80
2023/10/01 01:50:26;;;;;;;8.30;5.90;;;;;;;;;;6282478;22;20018;-80
2023/10/01 01:52:52;;;;;;;8.63;5.25;;;;;;;;;;6310342;22;20044;-80
2023/10/01 01:55:29;;;;;;;9.07;5.85;;;;;;;;;;6309019;22;20011;-80
2023/10/01 01:58:16;;;;;;;12.43;6.60;;;;;;;;;;6283046;22;20041;-81
2023/10/01 02:01:01;;;;;;;7.85;5.40;;;;;;;;;;6312328;22;20335;-81
2023/10/01 02:03:33;;;;;;;7.57;5.20;;;;;;;;;;6284756;22;20309;-81
2023/10/01 02:06:00;;;;;;;8.85;5.30;;;;;;;;;;6311590;22;20034;-81
2023/10/01 02:09:12;;;;;;;7.30;4.53;;;;;;;;;;6312217;22;20060;-81
2023/10/01 02:11:20;;;;;;;10.88;6.10;;;;;;;;;;6298358;22;20023;-81
2023/10/01 02:13:47;;;;;;;9.43;6.00;;;;;;;;;;6284544;22;20050;-81
2023/10/01 02:21:43;;;;;;;9.50;5.93;;;;;;;;;;6311856;22;20015;-80
2023/10/01 02:24:37;;;;;;;8.77;5.05;;;;;;;;;;6284726;22;20037;-80
2023/10/01 02:27:04;;;;;;;7.13;5.10;;;;;;;;;;6284159;22;20015;-80
2023/10/01 02:29:45;;;;;;;9.65;5.22;;;;;;;;;;6285294;22;20043;-80
2023/10/01 02:32:12;;;;;;;7.10;5.50;;;;;;;;;;6285181;22;20038;-81
2023/10/01 02:34:38;;;;;;;8.35;5.72;;;;;;;;;;6312844;22;20015;-81
2023/10/01 02:37:06;;;;;;;9.95;5.72;;;;;;;;;;6311973;22;20014;-80
2023/10/01 02:39:32;;;;;;;10.25;5.22;;;;;;;;;;6311913;22;20015;-81
2023/10/01 02:44:31;;;;;;;8.52;5.25;;;;;;;;;;6283881;22;20125;-81
2023/10/01 02:47:02;;;;;;;6.78;4.97;;;;;;;;;;6285272;22;20107;-81
2023/10/01 02:49:32;;;;;;;13.23;6.60;;;;;;;;;;6259138;22;20020;-81
2023/10/01 02:51:59;;;;;;;9.98;5.82;;;;;;;;;;6284579;22;20082;-81
2023/10/01 02:54:28;;;;;;;8.50;5.45;;;;;;;;;;6312888;22;20078;-81
2023/10/01 02:57:13;;;;;;;8.77;5.55;;;;;;;;;;6311631;22;20444;-80
2023/10/01 03:00:11;;;;;;;8.02;5.55;;;;;;;;;;6285586;22;20015;-80
2023/10/01 03:02:32;;;;;;;9.75;5.32;;;;;;;;;;6311730;22;20015;-80
2023/10/01 03:05:06;;;;;;;9.77;5.88;;;;;;;;;;6312190;22;20046;-80
2023/10/01 03:07:37;;;;;;;10.02;5.22;;;;;;;;;;6315496;22;20082;-81
2023/10/01 03:10:11;;;;;;;7.47;5.07;;;;;;;;;;6285611;22;20087;-80
2023/10/01 03:12:40;;;;;;;8.27;5.10;;;;;;;;;;6290642;22;20051;-81
2023/10/01 03:17:39;;;;;;;8.35;5.03;;;;;;;;;;6317392;22;20066;-80
2023/10/01 03:22:53;;;;;;;8.30;5.78;;;;;;;;;;6264657;22;20476;-80
2023/10/01 03:25:20;;;;;;;8.18;5.00;;;;;;;;;;6311573;22;20011;-81
2023/10/01 03:27:46;;;;;;;7.43;5.78;;;;;;;;;;6284597;22;20022;-81
2023/10/01 03:30:21;;;;;;;9.25;5.68;;;;;;;;;;6284304;22;20017;-81
2023/10/01 03:32:47;;;;;;;9.43;5.40;;;;;;;;;;6311936;22;20053;-81
2023/10/01 03:35:13;;;;;;;8.50;5.28;;;;;;;;;;6312009;22;20011;-81
2023/10/01 03:37:40;;;;;;;9.55;5.30;;;;;;;;;;6284733;22;20015;-81
2023/10/01 03:40:22;;;;;;;6.65;4.55;;;;;;;;;;6283339;22;20015;-80
2023/10/01 03:42:52;;;;;;;6.97;4.75;;;;;;;;;;6282352;22;20023;-80
2023/10/01 03:48:00;;;;;;;8.45;5.32;;;;;;;;;;6309803;22;20094;-80
2023/10/01 03:50:26;;;;;;;10.57;4.90;;;;;;;;;;6311143;22;20016;-80
2023/10/01 03:52:58;;;;;;;8.00;4.53;;;;;;;;;;6310750;22;20023;-80
2023/10/01 03:58:18;;;;;;;7.72;4.40;;;;;;;;;;6310790;22;20039;-80
2023/10/01 04:00:53;;;;;;;8.88;5.22;;;;;;;;;;6310022;22;20475;-80
2023/10/01 04:03:21;;;;;;;9.32;5.72;;;;;;;;;;6284713;22;20022;-80
2023/10/01 04:05:47;;;;;;;9.40;5.10;;;;;;;;;;6284212;22;20026;-80
2023/10/01 04:08:16;;;;;;;9.02;5.55;;;;;;;;;;6282486;22;20352;-80
2023/10/01 04:10:47;;;;;;;8.27;4.47;;;;;;;;;;6257669;22;20007;-80
2023/10/01 04:13:20;;;;;;;8.90;4.32;;;;;;;;;;6310578;22;20030;-80
2023/10/01 04:15:49;;;;;;;9.55;5.15;;;;;;;;;;6284940;22;20019;-81
2023/10/01 04:20:48;;;;;;;7.70;4.43;;;;;;;;;;6295777;22;20039;-80
2023/10/01 04:23:23;;;;;;;8.88;5.00;;;;;;;;;;6297948;22;20082;-80
2023/10/01 04:25:52;;;;;;;8.32;4.20;;;;;;;;;;6311223;22;20086;-80
2023/10/01 04:28:21;;;;;;;7.90;4.97;;;;;;;;;;6312186;22;20039;-81
2023/10/01 04:30:56;;;;;;;7.45;4.78;;;;;;;;;;6310974;22;20050;-80
2023/10/01 04:33:25;;;;;;;7.95;4.63;;;;;;;;;;6311140;22;20015;-80
2023/10/01 04:35:55;;;;;;;5.68;3.70;;;;;;;;;;6283170;22;20348;-81
2023/10/01 04:38:22;;;;;;;8.13;4.70;;;;;;;;;;6310578;22;20015;-81
2023/10/01 04:40:49;;;;;;;8.15;4.80;;;;;;;;;;6311017;22;20019;-81
2023/10/01 04:43:20;;;;;;;6.28;4.38;;;;;;;;;;6282772;22;20015;-81
2023/10/01 04:45:47;;;;;;;8.60;4.75;;;;;;;;;;6283076;22;20019;-81
2023/10/01 04:48:17;;;;;;;8.75;4.70;;;;;;;;;;6282651;22;20034;-81
2023/10/01 04:50:43;;;;;;;8.27;5.30;;;;;;;;;;6310996;22;20066;-80
2023/10/01 04:53:13;;;;;;;7.18;4.68;;;;;;;;;;6310566;22;20030;-81
2023/10/01 04:55:42;;;;;;;7.70;4.90;;;;;;;;;;6257060;22;20011;-81
2023/10/01 04:58:14;;;;;;;6.68;4.30;;;;;;;;;;6310081;22;20019;-81
2023/10/01 05:00:47;;;;;;;7.55;4.95;;;;;;;;;;6282474;22;20019;-81
2023/10/01 05:03:17;;;;;;;8.13;5.55;;;;;;;;;;6281680;22;20011;-80
2023/10/01 05:05:43;;;;;;;8.00;5.00;;;;;;;;;;6283370;22;20011;-80
2023/10/01 05:08:12;;;;;;;12.55;5.80;;;;;;;;;;6310512;22;20647;-80
2023/10/01 05:10:51;;;;;;;9.60;5.07;;;;;;;;;;6311261;22;20042;-80
2023/10/01 05:13:20;;;;;;;8.20;4.55;;;;;;;;;;6309249;22;20448;-81
2023/10/01 05:15:49;;;;;;;8.68;5.20;;;;;;;;;;6311092;22;20030;-80
2023/10/01 05:18:15;;;;;;;7.70;4.53;;;;;;;;;;6309948;22;20393;-80
2023/10/01 05:20:41;;;;;;;8.88;4.60;;;;;;;;;;6283375;22;20015;-80
2023/10/01 05:23:07;;;;;;;8.70;4.90;;;;;;;;;;6309569;22;20060;-80
2023/10/01 05:25:33;;;;;;;7.13;4.00;;;;;;;;;;6256990;22;20071;-80
2023/10/01 05:28:03;;;;;;;9.15;4.70;;;;;;;;;;6256557;22;20039;-80
2023/10/01 05:30:36;;;;;;;8.38;4.78;;;;;;;;;;6281762;22;20348;-81
2023/10/01 05:33:06;;;;;;;5.25;3.63;;;;;;;;;;6281235;22;20385;-81
2023/10/01 05:35:44;;;;;;;9.32;4.10;;;;;;;;;;6282323;22;20475;-80
2023/10/01 05:38:10;;;;;;;7.45;4.07;;;;;;;;;;6308304;22;20054;-81
2023/10/01 05:40:37;;;;;;;6.50;3.83;;;;;;;;;;6309450;22;20022;-81
2023/10/01 05:43:13;;;;;;;6.63;3.95;;;;;;;;;;6281551;22;20046;-81
2023/10/01 05:45:47;;;;;;;6.45;3.80;;;;;;;;;;6308883;22;20086;-83
2023/10/01 05:48:18;;;;;;;8.20;4.03;;;;;;;;;;6281661;22;20011;-85
2023/10/01 05:50:45;;;;;;;8.40;4.70;;;;;;;;;;6282424;22;20094;-83
2023/10/01 05:53:13;;;;;;;7.47;4.05;;;;;;;;;;6282806;22;20046;-82
2023/10/01 05:55:39;;;;;;;8.77;4.38;;;;;;;;;;6259572;22;20012;-82
2023/10/01 05:58:19;;;;;;;8.23;4.60;;;;;;;;;;6283038;22;20025;-83
2023/10/01 06:01:05;;;;;;;8.02;4.03;;;;;;;;;;6311153;22;20090;-82
2023/10/01 06:03:31;;;;;;;7.18;4.05;;;;;;;;;;6283783;22;20072;-83
2023/10/01 06:06:08;;;;;;;7.03;3.45;;;;;;;;;;6282157;22;20390;-82
2023/10/01 06:08:37;;;;;;;9.18;3.80;;;;;;;;;;6282173;22;20015;-82
2023/10/01 06:11:13;;;;;;;5.68;3.63;;;;;;;;;;6281491;22;20348;-82
2023/10/01 06:13:39;;;;;;;6.80;4.28;;;;;;;;;;6282854;22;20019;-82
2023/10/01 06:16:13;;;;;;;6.40;4.05;;;;;;;;;;6282266;22;20049;-82
2023/10/01 06:18:49;;;;;;;8.73;4.18;;;;;;;;;;6310382;22;20018;-83
2023/10/01 06:21:17;;;;;;;8.10;4.07;;;;;;;;;;6282867;22;20436;-82
2023/10/01 06:23:49;;;;;;;6.53;3.65;;;;;;;;;;6283159;22;20149;-82
2023/10/01 06:26:29;;;;;;;8.95;5.45;;;;;;;;;;6280664;22;20382;-81
2023/10/01 06:28:57;;;;;;;7.80;3.97;;;;;;;;;;6281746;22;20019;-83
2023/10/01 06:31:23;;;;;;;8.82;4.38;;;;;;;;;;6280807;22;20021;-83
2023/10/01 06:33:53;;;;;;;8.05;4.35;;;;;;;;;;6281213;22;20011;-84
2023/10/01 06:36:21;;;;;;;8.63;4.18;;;;;;;;;;6282245;22;20007;-82
2023/10/01 06:38:47;;;;;;;8.48;4.10;;;;;;;;;;6281906;22;20011;-83
2023/10/01 06:41:25;;;;;;;7.15;4.38;;;;;;;;;;6281639;22;20018;-83
2023/10/01 06:44:01;;;;;;;8.07;3.50;;;;;;;;;;6282215;22;20015;-82
2023/10/01 06:46:27;;;;;;;6.78;3.45;;;;;;;;;;6283888;22;20068;-83
2023/10/01 06:48:56;;;;;;;7.45;3.42;;;;;;;;;;6259594;22;20045;-82
2023/10/01 06:51:25;;;;;;;6.05;3.30;;;;;;;;;;6285937;22;20011;-83
2023/10/01 06:54:05;;;;;;;7.80;3.25;;;;;;;;;;6285568;22;20015;-83
2023/10/01 06:56:33;;;;;;;7.78;3.50;;;;;;;;;;6284909;22;20018;-83
2023/10/01 07:01:42;;;;;;;6.72;3.97;;;;;;;;;;6311545;22;20394;-83
2023/10/01 07:04:08;;;;;;;5.47;3.70;;;;;;;;;;6309757;22;20015;-83
2023/10/01 07:06:36;;;;;;;8.20;3.70;;;;;;;;;;6281551;22;20047;-83
2023/10/01 07:09:24;;;;;;;8.50;3.83;;;;;;;;;;6280927;22;20022;-83
2023/10/01 07:11:52;;;;;;;9.27;3.78;;;;;;;;;;6308799;22;20047;-84
2023/10/01 07:14:29;;;;;;;10.73;4.10;;;;;;;;;;6307361;22;20011;-85
2023/10/01 07:16:55;;;;;;;7.75;3.72;;;;;;;;;;6275603;22;20023;-83
2023/10/01 07:19:21;;;;;;;9.02;3.85;;;;;;;;;;6280037;22;20015;-84
2023/10/01 07:21:56;;;;;;;9.20;3.78;;;;;;;;;;6282051;22;20051;-84
2023/10/01 07:24:23;;;;;;;9.55;4.55;;;;;;;;;;6285370;22;20097;-84
2023/10/01 07:26:50;;;;;;;9.95;4.32;;;;;;;;;;6284610;22;20016;-83
2023/10/01 07:29:16;;;;;;;9.15;4.20;;;;;;;;;;6311484;22;20049;-83
2023/10/01 07:31:43;;;;;;;7.80;3.70;;;;;;;;;;6283755;22;20007;-83
2023/10/01 07:34:12;;;;;;;7.28;3.65;;;;;;;;;;6309605;22;20453;-82
2023/10/01 07:36:42;;;;;;;8.32;4.25;;;;;;;;;;6280688;22;20078;-83
2023/10/01 07:39:09;;;;;;;5.53;3.33;;;;;;;;;;6255993;22;20046;-83
2023/10/01 07:41:38;;;;;;;6.93;3.60;;;;;;;;;;6255784;22;20243;-83
2023/10/01 07:44:08;;;;;;;6.68;3.45;;;;;;;;;;6252904;22;20513;-83
2023/10/01 07:46:36;;;;;;;8.10;3.83;;;;;;;;;;6278421;22;20023;-86
2023/10/01 07:49:02;;;;;;;9.38;3.97;;;;;;;;;;6252269;22;20406;-83
2023/10/01 07:51:31;;;;;;;7.70;3.65;;;;;;;;;;6283512;22;20034;-83
2023/10/01 07:53:57;;;;;;;8.45;4.18;;;;;;;;;;6284575;22;20408;-83
2023/10/01 07:56:23;;;;;;;8.57;3.95;;;;;;;;;;6283513;22;20015;-83
2023/10/01 07:59:16;;;;;;;10.18;3.70;;;;;;;;;;6283634;22;20022;-83
2023/10/01 08:01:46;;;;;;;11.00;4.70;;;;;;;;;;6282070;22;20019;-83
2023/10/01 08:04:58;;;;;;;9.15;3.65;;;;;;;;;;6281920;22;20015;-83
2023/10/01 08:07:15;;;;;;;7.95;3.60;;;;;;;;;;6265053;22;20030;-83
2023/10/01 08:09:46;;;;;;;10.43;4.15;;;;;;;;;;6310706;22;20019;-83
2023/10/01 08:12:12;;;;;;;9.90;4.50;;;;;;;;;;6278793;22;20022;-89
2023/10/01 08:14:40;;;;;;;6.60;3.65;;;;;;;;;;6254489;22;20064;-89
2023/10/01 08:17:07;;;;;;;8.23;4.05;;;;;;;;;;6254573;22;20011;-88
2023/10/01 08:19:49;;;;;;;7.38;3.58;;;;;;;;;;6253348;22;20022;-89
2023/10/01 08:22:22;;;;;;;9.50;4.15;;;;;;;;;;6279181;22;20015;-89
2023/10/01 08:24:49;;;;;;;8.38;3.63;;;;;;;;;;6280115;22;20386;-88
2023/10/01 08:27:31;;;;;;;6.60;3.50;;;;;;;;;;6279084;22;20448;-88
2023/10/01 08:30:18;;;;;;;;;;;;;;;;;;6253837;22;20012;-88
2023/10/01 08:32:53;;;;;;;10.63;3.90;;;;;;;;;;6278701;22;20217;-88
2023/10/01 08:35:23;;;;;;;9.18;4.13;;;;;;;;;;6278862;22;20050;-88
2023/10/01 08:37:49;;;;;;;7.60;3.70;;;;;;;;;;6279772;22;20448;-86
2023/10/01 08:40:17;;;;;;;7.53;3.42;;;;;;;;;;6280851;22;20015;-81
2023/10/01 08:42:44;;;;;;;6.70;3.60;;;;;;;;;;6309545;22;20016;-81
2023/10/01 08:45:12;;;;;;;8.57;4.10;;;;;;;;;;6280696;22;20014;-82
2023/10/01 08:47:38;;;;;;;7.93;4.45;;;;;;;;;;6281418;22;20019;-82
2023/10/01 08:52:52;;;;;;;13.15;4.35;;;;;;;;;;6309515;22;20472;-82
2023/10/01 08:56:04;;;;;;;8.48;4.15;;;;;;;;;;6308706;22;20317;-81
2023/10/01 09:00:53;;;;;;;9.75;4.40;;;;;;;;;;6309040;22;20084;-81
2023/10/01 09:03:28;;;;;;;7.57;4.38;;;;;;;;;;6307481;22;20011;-81
2023/10/01 09:06:04;;;;;;;10.18;4.10;;;;;;;;;;6308646;22;20007;-81
2023/10/01 09:08:45;;;;;;;9.50;4.35;;;;;;;;;;6280898;22;20023;-82
2023/10/01 09:11:16;;;;;;;8.48;3.90;;;;;;;;;;6281388;22;20007;-82
2023/10/01 09:14:14;;;;;;;7.80;3.92;;;;;;;;;;6282202;22;20011;-82
2023/10/01 09:16:42;;;;;;;9.32;4.30;;;;;;;;;;6281496;22;20015;-82
2023/10/01 09:21:55;;;;;;;9.32;4.78;;;;;;;;;;6308767;22;20459;-82
2023/10/01 09:24:55;;;;;;;9.65;4.10;;;;;;;;;;6281586;22;20022;-82
2023/10/01 09:27:31;;;;;;;9.95;4.25;;;;;;;;;;6309839;22;20082;-82
2023/10/01 09:29:57;;;;;;;;;;;;;;;;;;6306200;22;20508;-82
2023/10/01 09:32:51;;;;;;;9.13;5.10;;;;;;;;;;6307144;22;19914;-82
2023/10/01 09:38:10;;;;;;;9.70;4.57;;;;;;;;;;6280485;22;20019;-82
2023/10/01 09:40:43;;;;;;;8.38;4.13;;;;;;;;;;6281369;22;20051;-82
2023/10/01 09:43:18;;;;;;;7.03;3.90;;;;;;;;;;6307302;22;20560;-82
2023/10/01 09:45:51;;;;;;;12.20;4.40;;;;;;;;;;6308841;22;20042;-82
2023/10/01 09:48:37;;;;;;;10.68;4.30;;;;;;;;;;6280388;22;20333;-82
2023/10/01 09:51:13;;;;;;;9.07;4.15;;;;;;;;;;6308570;22;20015;-83
2023/10/01 09:53:44;;;;;;;9.10;4.00;;;;;;;;;;6282119;22;20041;-81
2023/10/01 09:56:29;;;;;;;12.25;4.35;;;;;;;;;;6279335;22;20064;-82
2023/10/01 09:59:03;;;;;;;7.25;4.00;;;;;;;;;;6306901;22;20061;-82
2023/10/01 10:01:33;;;;;;;10.80;3.80;;;;;;;;;;6278507;22;20064;-82
2023/10/01 10:04:01;;;;;;;9.32;4.00;;;;;;;;;;6278282;22;20015;-81
2023/10/01 10:06:27;;;;;;;9.68;4.47;;;;;;;;;;6279498;22;20026;-82
2023/10/01 10:09:03;;;;;;;10.77;4.30;;;;;;;;;;6305898;22;20018;-81
2023/10/01 10:11:40;;;;;;;10.32;4.13;;;;;;;;;;6309277;22;20069;-82
2023/10/01 10:14:25;;;;;;;6.18;3.42;;;;;;;;;;6281180;22;20039;-82
2023/10/01 10:16:57;;;;;;;7.18;3.35;;;;;;;;;;6278691;22;20038;-82
2023/10/01 10:19:24;;;;;;;9.30;3.65;;;;;;;;;;6310076;22;20436;-82
2023/10/01 10:24:31;;;;;;;9.13;3.90;;;;;;;;;;6279287;22;20019;-86
2023/10/01 10:26:58;;;;;;;7.20;3.88;;;;;;;;;;6253729;22;20015;-86
2023/10/01 10:29:25;;;;;;;9.55;4.38;;;;;;;;;;6254145;22;20017;-86
2023/10/01 10:32:09;;;;;;;8.90;4.00;;;;;;;;;;6253414;22;20114;-85
2023/10/01 10:34:47;;;;;;;9.52;4.22;;;;;;;;;;6281244;22;20007;-86
2023/10/01 10:37:33;;;;;;;9.50;3.90;;;;;;;;;;6278389;22;20206;-85
2023/10/01 10:40:04;;;;;;;6.80;3.45;;;;;;;;;;6278847;22;20026;-85
2023/10/01 10:42:33;;;;;;;8.10;3.60;;;;;;;;;;6307349;22;20087;-85
2023/10/01 10:45:20;;;;;;;7.88;4.10;;;;;;;;;;6280220;22;20015;-85
2023/10/01 10:48:08;;;;;;;8.73;4.45;;;;;;;;;;6307242;22;20090;-86
2023/10/01 10:51:02;;;;;;;8.93;3.63;;;;;;;;;;6279590;22;20012;-86
2023/10/01 10:53:42;;;;;;;8.25;4.30;;;;;;;;;;6278242;22;20078;-86
2023/10/01 10:56:10;;;;;;;9.60;3.50;;;;;;;;;;6278934;22;20041;-86
2023/10/01 10:59:01;;;;;;;8.15;3.50;;;;;;;;;;6279233;22;20091;-86
2023/10/01 11:01:51;;;;;;;7.75;4.05;;;;;;;;;;6254400;22;20321;-86
2023/10/01 11:04:18;;;;;;;12.75;4.47;;;;;;;;;;6280503;22;20018;-85
2023/10/01 11:06:44;;;;;;;8.70;3.70;;;;;;;;;;6307874;22;20015;-86
2023/10/01 11:09:22;;;;;;;9.25;4.07;;;;;;;;;;6279903;22;20011;-86
2023/10/01 11:11:49;;;;;;;11.50;4.50;;;;;;;;;;6307775;22;20406;-86
2023/10/01 11:14:18;;;;;;;8.70;4.07;;;;;;;;;;6281092;22;20012;-86
2023/10/01 11:16:44;;;;;;;6.68;4.05;;;;;;;;;;6280219;22;20022;-85
2023/10/01 11:19:14;;;;;;;10.07;4.40;;;;;;;;;;6305886;22;20011;-85
2023/10/01 11:22:06;;;;;;;9.23;4.72;;;;;;;;;;6306967;22;20440;-85
2023/10/01 11:24:36;;;;;;;12.02;4.93;;;;;;;;;;6281174;22;20018;-85
2023/10/01 11:27:22;;;;;;;8.93;4.18;;;;;;;;;;6281807;22;20018;-86
2023/10/01 11:29:58;;;;;;;10.43;4.30;;;;;;;;;;6280919;22;20069;-84
2023/10/01 11:33:01;;;;;;;10.05;3.95;;;;;;;;;;6282646;22;20022;-85
2023/10/01 11:35:31;;;;;;;8.65;3.95;;;;;;;;;;6284763;22;20339;-85
2023/10/01 11:37:57;;;;;;;;;;;;;;;;;;6290431;22;20067;-84
2023/10/01 11:41:06;;;;;;;10.18;3.90;;;;;;;;;;6330191;22;19934;-86
2023/10/01 11:43:23;;;;;;;9.15;3.63;;;;;;;;;;6307852;22;20025;-88
2023/10/01 11:45:49;;;;;;;10.02;3.55;;;;;;;;;;6303572;22;20011;-87
2023/10/01 11:48:24;;;;;;;12.45;5.55;;;;;;;;;;6257663;22;20027;-88
2023/10/01 11:50:50;;;;;;;10.68;4.15;;;;;;;;;;6282434;22;20094;-88
2023/10/01 11:53:28;;;;;;;6.85;3.53;;;;;;;;;;6257231;22;20015;-88
2023/10/01 11:56:01;;;;;;;8.07;4.10;;;;;;;;;;6284757;22;20011;-88
2023/10/01 11:58:27;;;;;;;9.00;3.78;;;;;;;;;;6260542;22;20118;-88
2023/10/01 12:00:59;;;;;;;6.72;3.65;;;;;;;;;;6289267;22;20072;-90
2023/10/01 12:03:25;;;;;;;8.75;4.18;;;;;;;;;;6263281;22;20015;-91
2023/10/01 12:05:56;;;;;;;8.60;3.85;;;;;;;;;;6278050;22;20067;-90
2023/10/01 12:08:34;;;;;;;12.82;3.85;;;;;;;;;;6303229;22;20046;-89
2023/10/01 12:11:26;;;;;;;8.75;3.80;;;;;;;;;;6271579;22;20011;-88
2023/10/01 12:14:05;;;;;;;8.77;4.28;;;;;;;;;;6306226;22;20022;-89
2023/10/01 12:16:32;;;;;;;9.07;4.32;;;;;;;;;;6281942;22;20007;-88
2023/10/01 12:21:42;;;;;;;11.60;4.35;;;;;;;;;;6307345;22;20011;-89
2023/10/01 12:24:12;;;;;;;8.98;3.80;;;;;;;;;;6304066;22;20841;-88
2023/10/01 12:26:38;;;;;;;;;;;;;;;;;;6293778;22;20010;-88
2023/10/01 12:29:11;;;;;;;8.52;3.83;;;;;;;;;;6311472;22;19910;-88
2023/10/01 12:31:40;;;;;;;10.20;4.32;;;;;;;;;;6285108;22;20090;-88
2023/10/01 12:34:06;;;;;;;10.10;3.80;;;;;;;;;;6280256;22;20057;-88
2023/10/01 12:36:42;;;;;;;8.15;3.55;;;;;;;;;;6280532;22;20007;-88
2023/10/01 12:44:30;;;;;;;8.55;3.75;;;;;;;;;;6280056;22;20015;-88
2023/10/01 12:47:01;;;;;;;8.38;3.30;;;;;;;;;;6279288;22;20018;-88
2023/10/01 12:49:34;;;;;;;8.63;3.42;;;;;;;;;;6279139;22;20038;-87
2023/10/01 12:52:04;;;;;;;7.90;3.25;;;;;;;;;;6253633;22;20344;-87
2023/10/01 12:54:36;;;;;;;7.75;3.85;;;;;;;;;;6278299;22;20060;-88
2023/10/01 12:57:02;;;;;;;7.65;3.63;;;;;;;;;;6278720;22;20018;-88
2023/10/01 12:59:39;;;;;;;7.25;3.45;;;;;;;;;;6277291;22;20082;-87
2023/10/01 13:02:22;;;;;;;9.10;3.42;;;;;;;;;;6278189;22;20018;-83
2023/10/01 13:05:16;;;;;;;8.23;4.15;;;;;;;;;;6310500;22;20018;-81
2023/10/01 13:07:38;;;;;;;9.02;4.20;;;;;;;;;;6309027;22;20015;-82
2023/10/01 13:10:06;;;;;;;8.40;3.88;;;;;;;;;;6309484;22;20321;-81
2023/10/01 13:12:39;;;;;;;10.23;3.38;;;;;;;;;;6309882;22;20007;-81
2023/10/01 13:15:14;;;;;;;7.47;3.28;;;;;;;;;;6281493;22;20064;-82
2023/10/01 13:17:44;;;;;;;8.90;4.15;;;;;;;;;;6283100;22;20019;-81
2023/10/01 13:20:22;;;;;;;8.25;3.60;;;;;;;;;;6309246;22;20060;-82
2023/10/01 13:22:48;;;;;;;7.55;3.30;;;;;;;;;;6311453;22;20042;-81
2023/10/01 13:25:20;;;;;;;7.68;4.00;;;;;;;;;;6310201;22;20012;-81
2023/10/01 13:27:50;;;;;;;7.63;4.25;;;;;;;;;;6309870;22;20080;-81
2023/10/01 13:30:20;;;;;;;9.65;3.95;;;;;;;;;;6309315;22;20313;-81
2023/10/01 13:33:10;;;;;;;8.38;3.65;;;;;;;;;;6311138;22;20011;-82
2023/10/01 13:35:36;;;;;;;8.02;3.60;;;;;;;;;;6282854;22;20021;-81
2023/10/01 14:08:43;;;;;;;10.48;4.00;;;;;;;;;;6313648;22;20011;-82
2023/10/01 14:11:10;;;;;;;7.28;4.47;;;;;;;;;;6313419;22;20369;-81
2023/10/01 14:13:36;;;;;;;7.63;4.07;;;;;;;;;;6313349;22;20436;-81
2023/10/01 14:16:11;;;;;;;8.30;3.75;;;;;;;;;;6313282;22;20038;-81
2023/10/01 14:18:41;;;;;;;7.80;3.72;;;;;;;;;;6314009;22;20039;-81
2023/10/01 14:21:13;;;;;;;7.38;3.67;;;;;;;;;;6259591;22;20026;-81
2023/10/01 14:23:40;;;;;;;8.82;4.57;;;;;;;;;;6314231;22;20011;-82
2023/10/01 14:26:21;;;;;;;7.70;3.13;;;;;;;;;;6284960;22;20042;-81
2023/10/01 14:28:49;;;;;;;8.70;4.05;;;;;;;;;;6286028;22;20022;-81
2023/10/01 14:34:03;;;;;;;12.10;4.13;;;;;;;;;;6313522;22;20012;-81
2023/10/01 14:36:29;;;;;;;11.25;4.00;;;;;;;;;;6312414;22;20022;-84
2023/10/01 14:38:58;;;;;;;7.63;4.07;;;;;;;;;;6312502;22;20056;-83
2023/10/01 14:41:28;;;;;;;7.93;3.75;;;;;;;;;;6313395;22;20053;-82
2023/10/01 14:43:54;;;;;;;;;;;;;;;;;;6308508;22;20026;-85
2023/10/01 14:46:21;;;;;;;8.90;3.53;;;;;;;;;;6280287;22;19915;-86
2023/10/01 14:48:47;;;;;;;8.82;3.47;;;;;;;;;;6281016;22;20023;-85
2023/10/01 14:51:15;;;;;;;9.50;4.53;;;;;;;;;;6279113;22;20025;-86
2023/10/01 14:53:41;;;;;;;9.70;3.78;;;;;;;;;;6281642;22;20015;-86
2023/10/01 14:56:07;;;;;;;8.23;3.97;;;;;;;;;;6254762;22;20007;-85
2023/10/01 14:58:34;;;;;;;6.95;3.58;;;;;;;;;;6280884;22;20065;-86
2023/10/01 15:01:00;;;;;;;8.43;4.47;;;;;;;;;;6280981;22;20022;-85
2023/10/01 15:03:35;;;;;;;9.98;4.35;;;;;;;;;;6307984;22;20012;-85
2023/10/01 15:06:01;;;;;;;10.02;4.32;;;;;;;;;;6278177;22;20011;-85
2023/10/01 15:08:29;;;;;;;8.98;3.70;;;;;;;;;;6278688;22;20285;-83
2023/10/01 15:11:11;;;;;;;10.35;4.45;;;;;;;;;;6276222;22;20019;-86
2023/10/01 15:13:38;;;;;;;9.77;4.50;;;;;;;;;;6254081;22;20130;-85
2023/10/01 15:16:04;;;;;;;10.45;4.38;;;;;;;;;;6280131;22;20371;-85
2023/10/01 15:18:33;;;;;;;8.60;3.92;;;;;;;;;;6255615;22;20008;-85
2023/10/01 15:21:10;;;;;;;7.75;4.18;;;;;;;;;;6256105;22;20011;-85
2023/10/01 15:23:44;;;;;;;9.35;3.80;;;;;;;;;;6281687;22;20017;-85
2023/10/01 15:26:11;;;;;;;8.88;4.60;;;;;;;;;;6281019;22;20022;-85
2023/10/01 15:28:37;;;;;;;7.22;4.25;;;;;;;;;;6281522;22;20014;-86
2023/10/01 15:31:03;;;;;;;9.52;4.70;;;;;;;;;;6255840;22;20011;-85
2023/10/01 15:33:29;;;;;;;14.98;5.18;;;;;;;;;;6279345;22;20011;-84
2023/10/01 15:35:55;;;;;;;8.82;3.90;;;;;;;;;;6278384;22;20029;-84
2023/10/01 15:38:29;;;;;;;9.65;4.50;;;;;;;;;;6279294;22;20428;-84
2023/10/01 15:40:56;;;;;;;10.02;4.28;;;;;;;;;;6280357;22;20103;-84
2023/10/01 15:43:22;;;;;;;10.20;3.80;;;;;;;;;;6282428;22;20460;-83
2023/10/01 15:45:49;;;;;;;10.48;4.57;;;;;;;;;;6280399;22;20008;-84
2023/10/01 15:48:20;;;;;;;10.63;5.15;;;;;;;;;;6280481;22;20355;-84
2023/10/01 15:50:49;;;;;;;9.70;4.57;;;;;;;;;;6254495;22;20019;-87
2023/10/01 15:53:18;;;;;;;12.13;4.03;;;;;;;;;;6280982;22;20015;-86
2023/10/01 15:55:58;;;;;;;8.25;4.03;;;;;;;;;;6280599;22;20118;-86
2023/10/01 15:58:24;;;;;;;13.25;4.80;;;;;;;;;;6255847;22;20017;-85
2023/10/01 16:00:53;;;;;;;9.55;4.47;;;;;;;;;;6280947;22;20015;-85
2023/10/01 16:03:29;;;;;;;6.63;3.67;;;;;;;;;;6280811;22;20098;-85
2023/10/01 16:05:56;;;;;;;12.73;4.75;;;;;;;;;;6252987;22;20581;-86
2023/10/01 16:08:23;;;;;;;10.25;4.57;;;;;;;;;;6285084;22;20064;-85
2023/10/01 16:10:58;;;;;;;8.38;4.10;;;;;;;;;;6260827;22;20019;-85
2023/10/01 16:13:28;;;;;;;9.75;3.78;;;;;;;;;;6286727;22;20033;-85
2023/10/01 16:16:01;;;;;;;10.88;4.30;;;;;;;;;;6294684;22;20030;-85
2023/10/01 16:18:31;;;;;;;11.15;4.60;;;;;;;;;;6280398;22;20022;-85
2023/10/01 16:21:02;;;;;;;8.60;4.63;;;;;;;;;;6279332;22;20034;-85
2023/10/01 16:23:29;;;;;;;9.45;4.60;;;;;;;;;;6279284;22;20011;-84
2023/10/01 16:25:55;;;;;;;8.70;3.88;;;;;;;;;;6279200;22;20034;-84
2023/10/01 16:28:23;;;;;;;11.55;4.88;;;;;;;;;;6279702;22;20387;-85